sensor_id;sensor_type;location;lat;lon;timestamp;P1;durP1;ratioP1;P2;durP2;ratioP2
54627;SDS011;40525;55.926;21.066;2023-09-12T00:00:46;19.50;;;9.20;;
54627;SDS011;40525;55.926;21.066;2023-09-12T00:03:14;18.60;;;9.10;;
54627;SDS011;40525;55.926;21.066;2023-09-12T00:05:41;18.50;;;9.00;;
54627;SDS011;40525;55.926;21.066;2023-09-12T00:08:08;18.10;;;9.80;;
54627;SDS011;40525;55.926;21.066;2023-09-12T00:10:35;19.00;;;9.50;;
54627;SDS011;40525;55.926;21.066;2023-09-12T00:13:02;17.60;;;9.80;;
54627;SDS011;40525;55.926;21.066;2023-09-12T00:15:29;19.70;;;9.50;;
54627;SDS011;40525;55.926;21.066;2023-09-12T00:17:56;19.80;;;10.20;;
54627;SDS011;40525;55.926;21.066;2023-09-12T00:20:23;17.10;;;9.20;;
54627;SDS011;40525;55.926;21.066;2023-09-12T00:22:51;16.50;;;8.80;;
54627;SDS011;40525;55.926;21.066;2023-09-12T00:25:20;19.10;;;9.10;;
54627;SDS011;40525;55.926;21.066;2023-09-12T00:27:47;20.50;;;9.90;;
54627;SDS011;40525;55.926;21.066;2023-09-12T00:30:14;19.70;;;9.60;;
54627;SDS011;40525;55.926;21.066;2023-09-12T00:32:42;20.70;;;10.00;;
54627;SDS011;40525;55.926;21.066;2023-09-12T00:35:09;21.20;;;10.10;;
54627;SDS011;40525;55.926;21.066;2023-09-12T00:37:36;23.50;;;10.70;;
54627;SDS011;40525;55.926;21.066;2023-09-12T00:40:03;17.40;;;8.00;;
54627;SDS011;40525;55.926;21.066;2023-09-12T00:42:31;14.80;;;7.80;;
54627;SDS011;40525;55.926;21.066;2023-09-12T00:44:58;17.20;;;7.90;;
54627;SDS011;40525;55.926;21.066;2023-09-12T00:47:25;12.90;;;6.20;;
54627;SDS011;40525;55.926;21.066;2023-09-12T00:49:54;12.30;;;6.50;;
54627;SDS011;40525;55.926;21.066;2023-09-12T00:52:26;11.80;;;5.90;;
54627;SDS011;40525;55.926;21.066;2023-09-12T00:54:54;12.30;;;5.80;;
54627;SDS011;40525;55.926;21.066;2023-09-12T00:57:22;11.00;;;5.60;;
54627;SDS011;40525;55.926;21.066;2023-09-12T00:59:51;10.20;;;5.50;;
54627;SDS011;40525;55.926;21.066;2023-09-12T01:02:21;9.80;;;5.30;;
54627;SDS011;40525;55.926;21.066;2023-09-12T01:04:49;9.20;;;4.40;;
54627;SDS011;40525;55.926;21.066;2023-09-12T01:07:16;9.50;;;4.70;;
54627;SDS011;40525;55.926;21.066;2023-09-12T01:09:43;7.70;;;4.80;;
54627;SDS011;40525;55.926;21.066;2023-09-12T01:12:10;8.70;;;4.90;;
54627;SDS011;40525;55.926;21.066;2023-09-12T01:14:41;7.70;;;4.60;;
54627;SDS011;40525;55.926;21.066;2023-09-12T01:17:08;6.80;;;4.60;;
54627;SDS011;40525;55.926;21.066;2023-09-12T01:19:35;7.10;;;4.90;;
54627;SDS011;40525;55.926;21.066;2023-09-12T01:22:26;7.40;;;4.70;;
54627;SDS011;40525;55.926;21.066;2023-09-12T01:27:46;7.90;;;4.90;;
54627;SDS011;40525;55.926;21.066;2023-09-12T01:32:44;6.50;;;4.40;;
54627;SDS011;40525;55.926;21.066;2023-09-12T01:35:13;7.40;;;4.70;;
54627;SDS011;40525;55.926;21.066;2023-09-12T01:37:40;8.60;;;4.90;;
54627;SDS011;40525;55.926;21.066;2023-09-12T01:40:07;6.20;;;4.60;;
54627;SDS011;40525;55.926;21.066;2023-09-12T01:42:38;7.20;;;5.00;;
54627;SDS011;40525;55.926;21.066;2023-09-12T01:45:11;5.30;;;4.10;;
54627;SDS011;40525;55.926;21.066;2023-09-12T01:47:46;4.90;;;3.90;;
54627;SDS011;40525;55.926;21.066;2023-09-12T01:50:16;4.90;;;3.90;;
54627;SDS011;40525;55.926;21.066;2023-09-12T01:52:44;4.60;;;3.90;;
54627;SDS011;40525;55.926;21.066;2023-09-12T01:55:12;3.90;;;3.40;;
54627;SDS011;40525;55.926;21.066;2023-09-12T01:57:41;5.10;;;4.10;;
54627;SDS011;40525;55.926;21.066;2023-09-12T02:00:08;4.20;;;3.80;;
54627;SDS011;40525;55.926;21.066;2023-09-12T02:02:36;4.00;;;3.60;;
54627;SDS011;40525;55.926;21.066;2023-09-12T02:05:07;3.60;;;3.30;;
54627;SDS011;40525;55.926;21.066;2023-09-12T02:07:39;4.30;;;3.90;;
54627;SDS011;40525;55.926;21.066;2023-09-12T02:10:08;3.60;;;3.20;;
54627;SDS011;40525;55.926;21.066;2023-09-12T02:12:36;3.90;;;3.50;;
54627;SDS011;40525;55.926;21.066;2023-09-12T02:15:05;3.50;;;3.20;;
54627;SDS011;40525;55.926;21.066;2023-09-12T02:17:33;3.70;;;3.40;;
54627;SDS011;40525;55.926;21.066;2023-09-12T02:20:00;3.90;;;3.50;;
54627;SDS011;40525;55.926;21.066;2023-09-12T02:22:27;4.20;;;3.60;;
54627;SDS011;40525;55.926;21.066;2023-09-12T02:24:54;3.60;;;3.30;;
54627;SDS011;40525;55.926;21.066;2023-09-12T02:27:21;3.60;;;3.30;;
54627;SDS011;40525;55.926;21.066;2023-09-12T02:29:48;4.00;;;3.60;;
54627;SDS011;40525;55.926;21.066;2023-09-12T02:32:15;4.10;;;3.60;;
54627;SDS011;40525;55.926;21.066;2023-09-12T02:34:42;5.70;;;3.60;;
54627;SDS011;40525;55.926;21.066;2023-09-12T02:37:10;3.60;;;3.10;;
54627;SDS011;40525;55.926;21.066;2023-09-12T02:39:36;4.10;;;3.40;;
54627;SDS011;40525;55.926;21.066;2023-09-12T02:42:04;3.40;;;3.10;;
54627;SDS011;40525;55.926;21.066;2023-09-12T02:44:32;4.10;;;3.70;;
54627;SDS011;40525;55.926;21.066;2023-09-12T02:46:59;4.00;;;3.50;;
54627;SDS011;40525;55.926;21.066;2023-09-12T02:49:27;3.50;;;3.20;;
54627;SDS011;40525;55.926;21.066;2023-09-12T02:51:54;3.50;;;3.20;;
54627;SDS011;40525;55.926;21.066;2023-09-12T02:54:21;3.80;;;3.50;;
54627;SDS011;40525;55.926;21.066;2023-09-12T02:56:48;3.90;;;3.60;;
54627;SDS011;40525;55.926;21.066;2023-09-12T02:59:15;3.10;;;2.80;;
54627;SDS011;40525;55.926;21.066;2023-09-12T03:01:42;3.20;;;2.90;;
54627;SDS011;40525;55.926;21.066;2023-09-12T03:04:09;3.70;;;3.30;;
54627;SDS011;40525;55.926;21.066;2023-09-12T03:06:36;3.60;;;3.20;;
54627;SDS011;40525;55.926;21.066;2023-09-12T03:09:04;3.70;;;3.30;;
54627;SDS011;40525;55.926;21.066;2023-09-12T03:11:31;3.00;;;2.80;;
54627;SDS011;40525;55.926;21.066;2023-09-12T03:13:58;3.20;;;2.90;;
54627;SDS011;40525;55.926;21.066;2023-09-12T03:16:25;3.40;;;3.10;;
54627;SDS011;40525;55.926;21.066;2023-09-12T03:18:52;4.10;;;2.90;;
54627;SDS011;40525;55.926;21.066;2023-09-12T03:21:19;3.70;;;3.40;;
54627;SDS011;40525;55.926;21.066;2023-09-12T03:23:46;3.80;;;3.50;;
54627;SDS011;40525;55.926;21.066;2023-09-12T03:26:13;3.80;;;3.40;;
54627;SDS011;40525;55.926;21.066;2023-09-12T03:28:41;3.40;;;3.10;;
54627;SDS011;40525;55.926;21.066;2023-09-12T03:31:09;3.30;;;3.00;;
54627;SDS011;40525;55.926;21.066;2023-09-12T03:33:43;3.50;;;3.20;;
54627;SDS011;40525;55.926;21.066;2023-09-12T03:36:17;3.50;;;3.20;;
54627;SDS011;40525;55.926;21.066;2023-09-12T03:38:44;3.60;;;3.30;;
54627;SDS011;40525;55.926;21.066;2023-09-12T03:41:12;3.90;;;3.40;;
54627;SDS011;40525;55.926;21.066;2023-09-12T03:43:39;4.00;;;3.50;;
54627;SDS011;40525;55.926;21.066;2023-09-12T03:46:06;3.90;;;3.30;;
54627;SDS011;40525;55.926;21.066;2023-09-12T03:48:33;3.20;;;2.90;;
54627;SDS011;40525;55.926;21.066;2023-09-12T03:51:03;4.60;;;3.50;;
54627;SDS011;40525;55.926;21.066;2023-09-12T03:53:33;3.10;;;2.80;;
54627;SDS011;40525;55.926;21.066;2023-09-12T03:56:00;3.30;;;3.00;;
54627;SDS011;40525;55.926;21.066;2023-09-12T03:58:27;3.40;;;3.10;;
54627;SDS011;40525;55.926;21.066;2023-09-12T04:00:54;2.80;;;2.60;;
54627;SDS011;40525;55.926;21.066;2023-09-12T04:03:21;2.90;;;2.60;;
54627;SDS011;40525;55.926;21.066;2023-09-12T04:05:50;4.00;;;2.70;;
54627;SDS011;40525;55.926;21.066;2023-09-12T04:08:17;3.10;;;2.80;;
54627;SDS011;40525;55.926;21.066;2023-09-12T04:10:44;3.10;;;2.90;;
54627;SDS011;40525;55.926;21.066;2023-09-12T04:13:11;3.60;;;3.10;;
54627;SDS011;40525;55.926;21.066;2023-09-12T04:15:38;3.40;;;2.90;;
54627;SDS011;40525;55.926;21.066;2023-09-12T04:18:05;4.10;;;3.00;;
54627;SDS011;40525;55.926;21.066;2023-09-12T04:20:33;3.70;;;3.00;;
54627;SDS011;40525;55.926;21.066;2023-09-12T04:23:01;3.00;;;2.70;;
54627;SDS011;40525;55.926;21.066;2023-09-12T04:25:31;3.80;;;2.80;;
54627;SDS011;40525;55.926;21.066;2023-09-12T04:28:00;3.90;;;3.10;;
54627;SDS011;40525;55.926;21.066;2023-09-12T04:30:27;3.60;;;3.00;;
54627;SDS011;40525;55.926;21.066;2023-09-12T04:32:55;4.90;;;3.30;;
54627;SDS011;40525;55.926;21.066;2023-09-12T04:35:22;4.10;;;3.10;;
54627;SDS011;40525;55.926;21.066;2023-09-12T04:37:49;4.30;;;3.20;;
54627;SDS011;40525;55.926;21.066;2023-09-12T04:40:17;3.90;;;2.70;;
54627;SDS011;40525;55.926;21.066;2023-09-12T04:42:44;3.80;;;2.60;;
54627;SDS011;40525;55.926;21.066;2023-09-12T04:45:12;5.10;;;3.10;;
54627;SDS011;40525;55.926;21.066;2023-09-12T04:47:39;5.70;;;3.20;;
54627;SDS011;40525;55.926;21.066;2023-09-12T04:50:07;3.90;;;3.10;;
54627;SDS011;40525;55.926;21.066;2023-09-12T04:52:34;5.90;;;3.60;;
54627;SDS011;40525;55.926;21.066;2023-09-12T04:55:01;4.50;;;3.20;;
54627;SDS011;40525;55.926;21.066;2023-09-12T04:57:30;6.00;;;2.90;;
54627;SDS011;40525;55.926;21.066;2023-09-12T04:59:58;5.20;;;3.30;;
54627;SDS011;40525;55.926;21.066;2023-09-12T05:02:25;4.60;;;3.40;;
54627;SDS011;40525;55.926;21.066;2023-09-12T05:04:52;3.70;;;3.00;;
54627;SDS011;40525;55.926;21.066;2023-09-12T05:07:21;3.60;;;2.90;;
54627;SDS011;40525;55.926;21.066;2023-09-12T05:09:49;5.40;;;3.10;;
54627;SDS011;40525;55.926;21.066;2023-09-12T05:12:17;3.90;;;3.50;;
54627;SDS011;40525;55.926;21.066;2023-09-12T05:14:44;5.30;;;3.30;;
54627;SDS011;40525;55.926;21.066;2023-09-12T05:17:11;4.90;;;3.00;;
54627;SDS011;40525;55.926;21.066;2023-09-12T05:19:38;3.80;;;2.70;;
54627;SDS011;40525;55.926;21.066;2023-09-12T05:22:05;5.00;;;2.90;;
54627;SDS011;40525;55.926;21.066;2023-09-12T05:24:32;4.30;;;3.50;;
54627;SDS011;40525;55.926;21.066;2023-09-12T05:26:59;4.00;;;3.10;;
54627;SDS011;40525;55.926;21.066;2023-09-12T05:29:26;4.00;;;3.30;;
54627;SDS011;40525;55.926;21.066;2023-09-12T05:31:53;4.50;;;3.40;;
54627;SDS011;40525;55.926;21.066;2023-09-12T05:34:20;4.00;;;2.80;;
54627;SDS011;40525;55.926;21.066;2023-09-12T05:36:47;3.20;;;2.90;;
54627;SDS011;40525;55.926;21.066;2023-09-12T05:39:14;3.20;;;2.70;;
54627;SDS011;40525;55.926;21.066;2023-09-12T05:41:41;3.10;;;2.80;;
54627;SDS011;40525;55.926;21.066;2023-09-12T05:44:08;2.80;;;2.50;;
54627;SDS011;40525;55.926;21.066;2023-09-12T05:46:35;3.10;;;2.70;;
54627;SDS011;40525;55.926;21.066;2023-09-12T05:49:02;4.20;;;2.80;;
54627;SDS011;40525;55.926;21.066;2023-09-12T05:51:30;4.40;;;2.80;;
54627;SDS011;40525;55.926;21.066;2023-09-12T05:53:58;3.80;;;2.90;;
54627;SDS011;40525;55.926;21.066;2023-09-12T05:56:25;3.30;;;2.80;;
54627;SDS011;40525;55.926;21.066;2023-09-12T05:58:52;3.40;;;3.10;;
54627;SDS011;40525;55.926;21.066;2023-09-12T06:01:19;4.60;;;3.60;;
54627;SDS011;40525;55.926;21.066;2023-09-12T06:03:46;3.30;;;2.90;;
54627;SDS011;40525;55.926;21.066;2023-09-12T06:06:13;3.70;;;3.20;;
54627;SDS011;40525;55.926;21.066;2023-09-12T06:08:41;4.70;;;3.40;;
54627;SDS011;40525;55.926;21.066;2023-09-12T06:11:08;3.50;;;3.10;;
54627;SDS011;40525;55.926;21.066;2023-09-12T06:13:35;4.10;;;2.80;;
54627;SDS011;40525;55.926;21.066;2023-09-12T06:16:04;4.10;;;3.60;;
54627;SDS011;40525;55.926;21.066;2023-09-12T06:18:32;5.40;;;3.80;;
54627;SDS011;40525;55.926;21.066;2023-09-12T06:21:01;3.90;;;3.20;;
54627;SDS011;40525;55.926;21.066;2023-09-12T06:23:35;7.10;;;3.70;;
54627;SDS011;40525;55.926;21.066;2023-09-12T06:26:03;5.20;;;3.90;;
54627;SDS011;40525;55.926;21.066;2023-09-12T06:28:30;4.90;;;3.30;;
54627;SDS011;40525;55.926;21.066;2023-09-12T06:30:58;5.00;;;4.10;;
54627;SDS011;40525;55.926;21.066;2023-09-12T06:33:26;5.70;;;4.20;;
54627;SDS011;40525;55.926;21.066;2023-09-12T06:35:53;5.40;;;4.00;;
54627;SDS011;40525;55.926;21.066;2023-09-12T06:38:24;4.50;;;3.90;;
54627;SDS011;40525;55.926;21.066;2023-09-12T06:40:51;4.70;;;3.70;;
54627;SDS011;40525;55.926;21.066;2023-09-12T06:43:18;5.80;;;4.10;;
54627;SDS011;40525;55.926;21.066;2023-09-12T06:45:45;4.20;;;3.80;;
54627;SDS011;40525;55.926;21.066;2023-09-12T06:48:12;5.30;;;4.20;;
54627;SDS011;40525;55.926;21.066;2023-09-12T06:50:40;5.20;;;4.20;;
54627;SDS011;40525;55.926;21.066;2023-09-12T06:53:08;6.20;;;4.10;;
54627;SDS011;40525;55.926;21.066;2023-09-12T06:55:36;5.10;;;3.90;;
54627;SDS011;40525;55.926;21.066;2023-09-12T06:58:04;5.20;;;4.40;;
54627;SDS011;40525;55.926;21.066;2023-09-12T07:00:31;4.90;;;4.20;;
54627;SDS011;40525;55.926;21.066;2023-09-12T07:02:58;5.50;;;4.60;;
54627;SDS011;40525;55.926;21.066;2023-09-12T07:05:25;5.30;;;4.80;;
54627;SDS011;40525;55.926;21.066;2023-09-12T07:07:52;5.30;;;4.60;;
54627;SDS011;40525;55.926;21.066;2023-09-12T07:10:19;5.40;;;4.90;;
54627;SDS011;40525;55.926;21.066;2023-09-12T07:12:52;5.60;;;4.90;;
54627;SDS011;40525;55.926;21.066;2023-09-12T07:15:20;6.70;;;5.30;;
54627;SDS011;40525;55.926;21.066;2023-09-12T07:17:48;7.40;;;5.40;;
54627;SDS011;40525;55.926;21.066;2023-09-12T07:20:15;6.50;;;5.60;;
54627;SDS011;40525;55.926;21.066;2023-09-12T07:22:44;7.60;;;5.80;;
54627;SDS011;40525;55.926;21.066;2023-09-12T07:25:13;7.80;;;5.50;;
54627;SDS011;40525;55.926;21.066;2023-09-12T07:27:40;8.30;;;6.10;;
54627;SDS011;40525;55.926;21.066;2023-09-12T07:30:07;7.10;;;6.20;;
54627;SDS011;40525;55.926;21.066;2023-09-12T07:32:35;5.70;;;5.10;;
54627;SDS011;40525;55.926;21.066;2023-09-12T07:35:02;10.60;;;6.70;;
54627;SDS011;40525;55.926;21.066;2023-09-12T07:37:29;8.00;;;6.50;;
54627;SDS011;40525;55.926;21.066;2023-09-12T07:39:56;9.20;;;7.40;;
54627;SDS011;40525;55.926;21.066;2023-09-12T07:42:23;10.50;;;7.20;;
54627;SDS011;40525;55.926;21.066;2023-09-12T07:44:51;8.30;;;7.30;;
54627;SDS011;40525;55.926;21.066;2023-09-12T07:47:18;9.00;;;7.30;;
54627;SDS011;40525;55.926;21.066;2023-09-12T07:49:52;9.00;;;6.80;;
54627;SDS011;40525;55.926;21.066;2023-09-12T07:52:20;8.90;;;7.00;;
54627;SDS011;40525;55.926;21.066;2023-09-12T07:54:51;8.20;;;7.20;;
54627;SDS011;40525;55.926;21.066;2023-09-12T07:59:50;9.40;;;7.00;;
54627;SDS011;40525;55.926;21.066;2023-09-12T08:02:17;8.90;;;8.00;;
54627;SDS011;40525;55.926;21.066;2023-09-12T08:04:44;10.40;;;8.00;;
54627;SDS011;40525;55.926;21.066;2023-09-12T08:07:12;9.50;;;7.90;;
54627;SDS011;40525;55.926;21.066;2023-09-12T08:12:19;12.60;;;7.80;;
54627;SDS011;40525;55.926;21.066;2023-09-12T08:14:48;11.40;;;9.60;;
54627;SDS011;40525;55.926;21.066;2023-09-12T08:17:15;10.80;;;8.30;;
54627;SDS011;40525;55.926;21.066;2023-09-12T08:19:42;10.40;;;9.20;;
54627;SDS011;40525;55.926;21.066;2023-09-12T08:22:11;9.60;;;7.90;;
54627;SDS011;40525;55.926;21.066;2023-09-12T08:24:38;10.90;;;8.70;;
54627;SDS011;40525;55.926;21.066;2023-09-12T08:27:06;9.90;;;8.10;;
54627;SDS011;40525;55.926;21.066;2023-09-12T08:29:37;10.00;;;8.70;;
54627;SDS011;40525;55.926;21.066;2023-09-12T08:32:05;9.50;;;8.10;;
54627;SDS011;40525;55.926;21.066;2023-09-12T08:34:35;9.20;;;8.30;;
54627;SDS011;40525;55.926;21.066;2023-09-12T08:37:02;9.20;;;8.00;;
54627;SDS011;40525;55.926;21.066;2023-09-12T08:39:39;10.90;;;8.70;;
54627;SDS011;40525;55.926;21.066;2023-09-12T08:42:15;10.50;;;8.30;;
54627;SDS011;40525;55.926;21.066;2023-09-12T08:44:43;10.60;;;8.80;;
54627;SDS011;40525;55.926;21.066;2023-09-12T08:47:11;9.40;;;8.50;;
54627;SDS011;40525;55.926;21.066;2023-09-12T08:49:39;9.50;;;8.50;;
54627;SDS011;40525;55.926;21.066;2023-09-12T08:52:09;9.20;;;8.30;;
54627;SDS011;40525;55.926;21.066;2023-09-12T08:54:36;10.40;;;8.30;;
54627;SDS011;40525;55.926;21.066;2023-09-12T08:57:04;9.80;;;8.70;;
54627;SDS011;40525;55.926;21.066;2023-09-12T08:59:33;8.60;;;7.70;;
54627;SDS011;40525;55.926;21.066;2023-09-12T09:02:01;10.80;;;8.60;;
54627;SDS011;40525;55.926;21.066;2023-09-12T09:04:32;10.60;;;8.60;;
54627;SDS011;40525;55.926;21.066;2023-09-12T09:07:03;9.70;;;8.70;;
54627;SDS011;40525;55.926;21.066;2023-09-12T09:09:31;10.50;;;7.10;;
54627;SDS011;40525;55.926;21.066;2023-09-12T09:11:59;6.80;;;6.10;;
54627;SDS011;40525;55.926;21.066;2023-09-12T09:14:26;6.80;;;6.10;;
54627;SDS011;40525;55.926;21.066;2023-09-12T09:16:53;7.10;;;6.30;;
54627;SDS011;40525;55.926;21.066;2023-09-12T09:19:21;8.10;;;7.30;;
54627;SDS011;40525;55.926;21.066;2023-09-12T09:21:48;7.60;;;6.80;;
54627;SDS011;40525;55.926;21.066;2023-09-12T09:24:16;9.10;;;7.10;;
54627;SDS011;40525;55.926;21.066;2023-09-12T09:29:17;8.20;;;7.40;;
54627;SDS011;40525;55.926;21.066;2023-09-12T09:31:46;8.50;;;7.70;;
54627;SDS011;40525;55.926;21.066;2023-09-12T09:34:15;10.50;;;8.30;;
54627;SDS011;40525;55.926;21.066;2023-09-12T09:36:46;7.90;;;7.10;;
54627;SDS011;40525;55.926;21.066;2023-09-12T09:39:14;9.60;;;8.60;;
54627;SDS011;40525;55.926;21.066;2023-09-12T09:41:46;9.60;;;8.60;;
54627;SDS011;40525;55.926;21.066;2023-09-12T09:44:17;8.80;;;7.90;;
54627;SDS011;40525;55.926;21.066;2023-09-12T09:46:45;7.90;;;7.00;;
54627;SDS011;40525;55.926;21.066;2023-09-12T09:49:17;7.80;;;7.00;;
54627;SDS011;40525;55.926;21.066;2023-09-12T09:51:47;8.50;;;7.50;;
54627;SDS011;40525;55.926;21.066;2023-09-12T09:54:14;8.20;;;7.40;;
54627;SDS011;40525;55.926;21.066;2023-09-12T09:56:45;8.50;;;7.70;;
54627;SDS011;40525;55.926;21.066;2023-09-12T09:59:15;8.60;;;7.70;;
54627;SDS011;40525;55.926;21.066;2023-09-12T10:01:48;7.50;;;6.80;;
54627;SDS011;40525;55.926;21.066;2023-09-12T10:04:17;9.10;;;8.00;;
54627;SDS011;40525;55.926;21.066;2023-09-12T10:06:45;8.70;;;6.90;;
54627;SDS011;40525;55.926;21.066;2023-09-12T10:09:13;8.20;;;7.40;;
54627;SDS011;40525;55.926;21.066;2023-09-12T10:11:42;7.60;;;6.80;;
54627;SDS011;40525;55.926;21.066;2023-09-12T10:14:10;6.20;;;5.60;;
54627;SDS011;40525;55.926;21.066;2023-09-12T10:16:42;7.70;;;6.90;;
54627;SDS011;40525;55.926;21.066;2023-09-12T10:19:19;7.50;;;6.80;;
54627;SDS011;40525;55.926;21.066;2023-09-12T10:24:39;7.70;;;6.90;;
54627;SDS011;40525;55.926;21.066;2023-09-12T10:27:07;7.70;;;6.10;;
54627;SDS011;40525;55.926;21.066;2023-09-12T10:29:35;6.70;;;6.10;;
54627;SDS011;40525;55.926;21.066;2023-09-12T10:32:03;6.40;;;5.80;;
54627;SDS011;40525;55.926;21.066;2023-09-12T10:34:31;7.00;;;6.40;;
54627;SDS011;40525;55.926;21.066;2023-09-12T10:36:59;8.40;;;7.20;;
54627;SDS011;40525;55.926;21.066;2023-09-12T10:39:33;8.50;;;7.70;;
54627;SDS011;40525;55.926;21.066;2023-09-12T10:42:03;8.10;;;7.00;;
54627;SDS011;40525;55.926;21.066;2023-09-12T10:44:31;8.10;;;7.30;;
54627;SDS011;40525;55.926;21.066;2023-09-12T10:46:59;7.20;;;6.60;;
54627;SDS011;40525;55.926;21.066;2023-09-12T10:49:27;8.50;;;7.80;;
54627;SDS011;40525;55.926;21.066;2023-09-12T10:51:55;6.40;;;5.80;;
54627;SDS011;40525;55.926;21.066;2023-09-12T10:54:23;9.30;;;8.40;;
54627;SDS011;40525;55.926;21.066;2023-09-12T10:57:11;7.70;;;6.90;;
54627;SDS011;40525;55.926;21.066;2023-09-12T11:02:27;8.30;;;6.70;;
54627;SDS011;40525;55.926;21.066;2023-09-12T11:04:59;8.50;;;7.40;;
54627;SDS011;40525;55.926;21.066;2023-09-12T11:12:46;7.20;;;6.60;;
54627;SDS011;40525;55.926;21.066;2023-09-12T11:15:16;8.30;;;6.90;;
54627;SDS011;40525;55.926;21.066;2023-09-12T11:17:44;8.60;;;7.80;;
54627;SDS011;40525;55.926;21.066;2023-09-12T11:20:16;9.10;;;7.50;;
54627;SDS011;40525;55.926;21.066;2023-09-12T11:22:45;6.80;;;6.10;;
54627;SDS011;40525;55.926;21.066;2023-09-12T11:25:23;8.30;;;7.50;;
54627;SDS011;40525;55.926;21.066;2023-09-12T11:30:22;10.20;;;7.50;;
54627;SDS011;40525;55.926;21.066;2023-09-12T11:32:53;7.60;;;6.90;;
54627;SDS011;40525;55.926;21.066;2023-09-12T11:35:25;7.20;;;6.60;;
54627;SDS011;40525;55.926;21.066;2023-09-12T11:37:55;8.50;;;7.40;;
54627;SDS011;40525;55.926;21.066;2023-09-12T11:40:24;7.30;;;6.50;;
54627;SDS011;40525;55.926;21.066;2023-09-12T11:43:22;7.20;;;6.50;;
54627;SDS011;40525;55.926;21.066;2023-09-12T11:45:51;7.20;;;6.50;;
54627;SDS011;40525;55.926;21.066;2023-09-12T11:48:19;7.80;;;6.80;;
54627;SDS011;40525;55.926;21.066;2023-09-12T11:50:54;7.00;;;6.30;;
54627;SDS011;40525;55.926;21.066;2023-09-12T11:53:25;6.90;;;6.20;;
54627;SDS011;40525;55.926;21.066;2023-09-12T11:55:58;7.00;;;6.30;;
54627;SDS011;40525;55.926;21.066;2023-09-12T11:58:26;7.30;;;5.90;;
54627;SDS011;40525;55.926;21.066;2023-09-12T12:00:55;6.90;;;6.30;;
54627;SDS011;40525;55.926;21.066;2023-09-12T12:03:24;7.10;;;6.40;;
54627;SDS011;40525;55.926;21.066;2023-09-12T12:05:55;6.90;;;6.10;;
54627;SDS011;40525;55.926;21.066;2023-09-12T12:08:25;8.10;;;6.30;;
54627;SDS011;40525;55.926;21.066;2023-09-12T12:10:58;6.90;;;5.90;;
54627;SDS011;40525;55.926;21.066;2023-09-12T12:13:26;7.00;;;6.30;;
54627;SDS011;40525;55.926;21.066;2023-09-12T12:15:57;8.10;;;5.80;;
54627;SDS011;40525;55.926;21.066;2023-09-12T12:18:24;7.20;;;6.50;;
54627;SDS011;40525;55.926;21.066;2023-09-12T12:20:53;6.90;;;6.30;;
54627;SDS011;40525;55.926;21.066;2023-09-12T12:23:20;6.30;;;5.60;;
54627;SDS011;40525;55.926;21.066;2023-09-12T12:25:47;6.80;;;5.70;;
54627;SDS011;40525;55.926;21.066;2023-09-12T12:28:15;7.20;;;6.30;;
54627;SDS011;40525;55.926;21.066;2023-09-12T12:30:43;8.00;;;6.30;;
54627;SDS011;40525;55.926;21.066;2023-09-12T12:33:10;7.30;;;6.10;;
54627;SDS011;40525;55.926;21.066;2023-09-12T12:36:01;10.00;;;5.90;;
54627;SDS011;40525;55.926;21.066;2023-09-12T12:38:33;6.60;;;5.90;;
54627;SDS011;40525;55.926;21.066;2023-09-12T12:41:13;6.50;;;5.90;;
54627;SDS011;40525;55.926;21.066;2023-09-12T12:43:42;7.20;;;6.50;;
54627;SDS011;40525;55.926;21.066;2023-09-12T12:46:10;6.80;;;6.10;;
54627;SDS011;40525;55.926;21.066;2023-09-12T12:48:42;6.80;;;5.90;;
54627;SDS011;40525;55.926;21.066;2023-09-12T12:51:22;6.60;;;6.00;;
54627;SDS011;40525;55.926;21.066;2023-09-12T12:53:52;7.40;;;6.10;;
54627;SDS011;40525;55.926;21.066;2023-09-12T12:56:21;6.90;;;5.80;;
54627;SDS011;40525;55.926;21.066;2023-09-12T12:58:51;5.90;;;5.40;;
54627;SDS011;40525;55.926;21.066;2023-09-12T13:01:21;6.30;;;5.80;;
54627;SDS011;40525;55.926;21.066;2023-09-12T13:03:48;6.00;;;5.50;;
54627;SDS011;40525;55.926;21.066;2023-09-12T13:06:20;6.50;;;5.90;;
54627;SDS011;40525;55.926;21.066;2023-09-12T13:08:47;7.00;;;6.40;;
54627;SDS011;40525;55.926;21.066;2023-09-12T13:11:16;6.20;;;5.60;;
54627;SDS011;40525;55.926;21.066;2023-09-12T13:13:44;6.50;;;5.80;;
54627;SDS011;40525;55.926;21.066;2023-09-12T13:16:13;7.50;;;5.90;;
54627;SDS011;40525;55.926;21.066;2023-09-12T13:18:41;8.10;;;6.50;;
54627;SDS011;40525;55.926;21.066;2023-09-12T13:21:08;6.20;;;5.60;;
54627;SDS011;40525;55.926;21.066;2023-09-12T13:23:36;8.10;;;5.90;;
54627;SDS011;40525;55.926;21.066;2023-09-12T13:26:06;7.10;;;6.40;;
54627;SDS011;40525;55.926;21.066;2023-09-12T13:28:34;6.40;;;5.90;;
54627;SDS011;40525;55.926;21.066;2023-09-12T13:31:01;7.50;;;5.80;;
54627;SDS011;40525;55.926;21.066;2023-09-12T13:33:29;6.30;;;5.70;;
54627;SDS011;40525;55.926;21.066;2023-09-12T13:35:56;6.70;;;6.10;;
54627;SDS011;40525;55.926;21.066;2023-09-12T13:38:23;7.80;;;5.50;;
54627;SDS011;40525;55.926;21.066;2023-09-12T13:40:50;6.40;;;5.90;;
54627;SDS011;40525;55.926;21.066;2023-09-12T13:43:17;6.70;;;6.10;;
54627;SDS011;40525;55.926;21.066;2023-09-12T13:45:45;6.50;;;5.90;;
54627;SDS011;40525;55.926;21.066;2023-09-12T13:48:12;6.40;;;5.80;;
54627;SDS011;40525;55.926;21.066;2023-09-12T13:50:40;6.60;;;6.00;;
54627;SDS011;40525;55.926;21.066;2023-09-12T13:53:10;6.50;;;5.70;;
54627;SDS011;40525;55.926;21.066;2023-09-12T13:55:37;6.90;;;6.30;;
54627;SDS011;40525;55.926;21.066;2023-09-12T13:58:04;6.60;;;6.00;;
54627;SDS011;40525;55.926;21.066;2023-09-12T14:00:33;6.80;;;6.20;;
54627;SDS011;40525;55.926;21.066;2023-09-12T14:03:03;6.80;;;6.20;;
54627;SDS011;40525;55.926;21.066;2023-09-12T14:05:31;6.20;;;5.60;;
54627;SDS011;40525;55.926;21.066;2023-09-12T14:07:59;6.30;;;5.70;;
54627;SDS011;40525;55.926;21.066;2023-09-12T14:10:26;6.90;;;6.00;;
54627;SDS011;40525;55.926;21.066;2023-09-12T14:13:02;6.70;;;6.10;;
54627;SDS011;40525;55.926;21.066;2023-09-12T14:15:47;6.00;;;5.40;;
54627;SDS011;40525;55.926;21.066;2023-09-12T14:18:17;6.10;;;5.60;;
54627;SDS011;40525;55.926;21.066;2023-09-12T14:20:47;7.00;;;6.00;;
54627;SDS011;40525;55.926;21.066;2023-09-12T14:23:16;6.10;;;5.50;;
54627;SDS011;40525;55.926;21.066;2023-09-12T14:25:44;6.60;;;6.00;;
54627;SDS011;40525;55.926;21.066;2023-09-12T14:28:12;6.10;;;5.50;;
54627;SDS011;40525;55.926;21.066;2023-09-12T14:30:41;6.60;;;6.00;;
54627;SDS011;40525;55.926;21.066;2023-09-12T14:33:12;6.80;;;6.20;;
54627;SDS011;40525;55.926;21.066;2023-09-12T14:35:43;6.30;;;5.70;;
54627;SDS011;40525;55.926;21.066;2023-09-12T14:38:11;6.20;;;5.70;;
54627;SDS011;40525;55.926;21.066;2023-09-12T14:40:38;6.10;;;5.50;;
54627;SDS011;40525;55.926;21.066;2023-09-12T14:43:11;8.30;;;5.60;;
54627;SDS011;40525;55.926;21.066;2023-09-12T14:45:38;5.90;;;5.40;;
54627;SDS011;40525;55.926;21.066;2023-09-12T14:48:06;6.20;;;5.70;;
54627;SDS011;40525;55.926;21.066;2023-09-12T14:50:34;6.60;;;6.00;;
54627;SDS011;40525;55.926;21.066;2023-09-12T14:53:10;6.70;;;6.10;;
54627;SDS011;40525;55.926;21.066;2023-09-12T14:55:38;6.60;;;5.80;;
54627;SDS011;40525;55.926;21.066;2023-09-12T14:58:06;6.50;;;5.90;;
54627;SDS011;40525;55.926;21.066;2023-09-12T15:00:33;6.40;;;5.80;;
54627;SDS011;40525;55.926;21.066;2023-09-12T15:03:00;6.90;;;5.70;;
54627;SDS011;40525;55.926;21.066;2023-09-12T15:05:28;6.40;;;5.80;;
54627;SDS011;40525;55.926;21.066;2023-09-12T15:07:55;6.20;;;5.70;;